sensor_id;sensor_type;location;lat;lon;timestamp;P1;durP1;ratioP1;P2;durP2;ratioP2
25950;SDS011;13748;52.240;6.002;2023-01-01T00:02:23;59.97;;;40.72;;
25950;SDS011;13748;52.240;6.002;2023-01-01T00:04:50;33.88;;;19.17;;
25950;SDS011;13748;52.240;6.002;2023-01-01T00:07:16;41.80;;;26.00;;
25950;SDS011;13748;52.240;6.002;2023-01-01T00:09:43;51.92;;;31.63;;
25950;SDS011;13748;52.240;6.002;2023-01-01T00:12:30;37.22;;;23.95;;
25950;SDS011;13748;52.240;6.002;2023-01-01T00:14:57;50.33;;;33.20;;
25950;SDS011;13748;52.240;6.002;2023-01-01T00:17:24;50.20;;;31.73;;
25950;SDS011;13748;52.240;6.002;2023-01-01T00:19:51;32.83;;;19.67;;
25950;SDS011;13748;52.240;6.002;2023-01-01T00:22:18;33.72;;;20.05;;
25950;SDS011;13748;52.240;6.002;2023-01-01T00:25:05;34.20;;;19.42;;
25950;SDS011;13748;52.240;6.002;2023-01-01T00:27:32;22.75;;;15.70;;
25950;SDS011;13748;52.240;6.002;2023-01-01T00:29:59;32.55;;;19.13;;
25950;SDS011;13748;52.240;6.002;2023-01-01T00:32:26;30.23;;;19.90;;
25950;SDS011;13748;52.240;6.002;2023-01-01T00:34:53;33.38;;;18.83;;
25950;SDS011;13748;52.240;6.002;2023-01-01T00:37:20;26.98;;;16.40;;
25950;SDS011;13748;52.240;6.002;2023-01-01T00:39:46;29.75;;;15.43;;
25950;SDS011;13748;52.240;6.002;2023-01-01T00:42:13;28.23;;;16.27;;
25950;SDS011;13748;52.240;6.002;2023-01-01T00:44:40;29.92;;;17.40;;
25950;SDS011;13748;52.240;6.002;2023-01-01T00:47:07;27.80;;;16.20;;
25950;SDS011;13748;52.240;6.002;2023-01-01T00:49:33;29.48;;;16.50;;
25950;SDS011;13748;52.240;6.002;2023-01-01T00:52:00;23.48;;;15.23;;
25950;SDS011;13748;52.240;6.002;2023-01-01T00:54:27;29.38;;;15.98;;
25950;SDS011;13748;52.240;6.002;2023-01-01T00:56:54;19.05;;;11.70;;
25950;SDS011;13748;52.240;6.002;2023-01-01T00:59:22;21.58;;;12.57;;
25950;SDS011;13748;52.240;6.002;2023-01-01T01:01:54;18.05;;;12.48;;
25950;SDS011;13748;52.240;6.002;2023-01-01T01:04:21;21.02;;;11.35;;
25950;SDS011;13748;52.240;6.002;2023-01-01T01:06:48;23.90;;;10.32;;
25950;SDS011;13748;52.240;6.002;2023-01-01T01:09:14;22.35;;;12.30;;
25950;SDS011;13748;52.240;6.002;2023-01-01T01:11:41;16.90;;;9.77;;
25950;SDS011;13748;52.240;6.002;2023-01-01T01:14:08;18.52;;;10.35;;
25950;SDS011;13748;52.240;6.002;2023-01-01T01:16:34;22.83;;;10.70;;
25950;SDS011;13748;52.240;6.002;2023-01-01T01:19:03;19.25;;;9.68;;
25950;SDS011;13748;52.240;6.002;2023-01-01T01:21:32;19.52;;;8.52;;
25950;SDS011;13748;52.240;6.002;2023-01-01T01:24:00;18.52;;;8.40;;
25950;SDS011;13748;52.240;6.002;2023-01-01T01:26:30;20.25;;;7.38;;
25950;SDS011;13748;52.240;6.002;2023-01-01T01:28:58;18.40;;;7.40;;
25950;SDS011;13748;52.240;6.002;2023-01-01T01:31:29;21.60;;;6.65;;
25950;SDS011;13748;52.240;6.002;2023-01-01T01:33:57;18.05;;;6.53;;
25950;SDS011;13748;52.240;6.002;2023-01-01T01:36:24;14.02;;;5.78;;
25950;SDS011;13748;52.240;6.002;2023-01-01T01:38:51;12.90;;;5.38;;
25950;SDS011;13748;52.240;6.002;2023-01-01T01:41:19;15.15;;;5.75;;
25950;SDS011;13748;52.240;6.002;2023-01-01T01:46:59;16.92;;;6.07;;
25950;SDS011;13748;52.240;6.002;2023-01-01T01:49:28;10.27;;;4.63;;
25950;SDS011;13748;52.240;6.002;2023-01-01T01:51:57;11.77;;;4.90;;
25950;SDS011;13748;52.240;6.002;2023-01-01T01:54:26;13.10;;;5.35;;
25950;SDS011;13748;52.240;6.002;2023-01-01T01:56:55;10.95;;;4.45;;
25950;SDS011;13748;52.240;6.002;2023-01-01T01:59:26;9.88;;;4.15;;
25950;SDS011;13748;52.240;6.002;2023-01-01T02:01:57;10.10;;;5.20;;
25950;SDS011;13748;52.240;6.002;2023-01-01T02:04:24;10.30;;;4.85;;
25950;SDS011;13748;52.240;6.002;2023-01-01T02:06:51;15.85;;;5.15;;
25950;SDS011;13748;52.240;6.002;2023-01-01T02:09:19;12.70;;;4.60;;
25950;SDS011;13748;52.240;6.002;2023-01-01T02:11:46;9.77;;;4.32;;
25950;SDS011;13748;52.240;6.002;2023-01-01T02:14:13;7.78;;;3.70;;
25950;SDS011;13748;52.240;6.002;2023-01-01T02:22:16;11.35;;;4.45;;
25950;SDS011;13748;52.240;6.002;2023-01-01T02:25:03;10.43;;;3.95;;
25950;SDS011;13748;52.240;6.002;2023-01-01T02:27:48;7.35;;;3.38;;
25950;SDS011;13748;52.240;6.002;2023-01-01T02:30:25;9.88;;;3.25;;
25950;SDS011;13748;52.240;6.002;2023-01-01T02:32:57;4.88;;;2.83;;
25950;SDS011;13748;52.240;6.002;2023-01-01T02:35:38;6.57;;;2.97;;
25950;SDS011;13748;52.240;6.002;2023-01-01T02:38:15;7.18;;;2.97;;
25950;SDS011;13748;52.240;6.002;2023-01-01T02:40:46;12.52;;;3.53;;
25950;SDS011;13748;52.240;6.002;2023-01-01T02:43:16;6.55;;;2.65;;
25950;SDS011;13748;52.240;6.002;2023-01-01T02:45:49;9.98;;;3.30;;
25950;SDS011;13748;52.240;6.002;2023-01-01T03:08:18;7.30;;;2.50;;
25950;SDS011;13748;52.240;6.002;2023-01-01T03:16:08;11.90;;;2.95;;
25950;SDS011;13748;52.240;6.002;2023-01-01T03:18:53;8.07;;;2.97;;
25950;SDS011;13748;52.240;6.002;2023-01-01T03:21:40;8.30;;;3.45;;
25950;SDS011;13748;52.240;6.002;2023-01-01T03:27:13;7.25;;;2.60;;
25950;SDS011;13748;52.240;6.002;2023-01-01T03:29:44;7.32;;;2.70;;
25950;SDS011;13748;52.240;6.002;2023-01-01T03:32:14;8.38;;;3.42;;
25950;SDS011;13748;52.240;6.002;2023-01-01T03:34:48;6.80;;;2.88;;
25950;SDS011;13748;52.240;6.002;2023-01-01T03:37:22;7.20;;;2.50;;
25950;SDS011;13748;52.240;6.002;2023-01-01T03:39:52;9.00;;;3.35;;
25950;SDS011;13748;52.240;6.002;2023-01-01T03:42:24;4.10;;;2.45;;
25950;SDS011;13748;52.240;6.002;2023-01-01T03:45:00;6.63;;;2.97;;
25950;SDS011;13748;52.240;6.002;2023-01-01T03:47:39;5.43;;;2.30;;
25950;SDS011;13748;52.240;6.002;2023-01-01T03:50:06;6.28;;;2.50;;
25950;SDS011;13748;52.240;6.002;2023-01-01T03:55:38;7.15;;;2.47;;
25950;SDS011;13748;52.240;6.002;2023-01-01T03:58:32;6.28;;;2.00;;
25950;SDS011;13748;52.240;6.002;2023-01-01T04:01:10;8.73;;;2.97;;
25950;SDS011;13748;52.240;6.002;2023-01-01T04:03:43;6.43;;;2.17;;
25950;SDS011;13748;52.240;6.002;2023-01-01T04:06:10;6.03;;;2.20;;
25950;SDS011;13748;52.240;6.002;2023-01-01T04:08:37;6.00;;;2.50;;
25950;SDS011;13748;52.240;6.002;2023-01-01T04:11:09;8.80;;;3.00;;
25950;SDS011;13748;52.240;6.002;2023-01-01T04:14:01;9.95;;;2.80;;
25950;SDS011;13748;52.240;6.002;2023-01-01T04:16:28;7.82;;;2.78;;
25950;SDS011;13748;52.240;6.002;2023-01-01T04:18:55;5.88;;;2.47;;
25950;SDS011;13748;52.240;6.002;2023-01-01T04:21:22;9.70;;;2.53;;
25950;SDS011;13748;52.240;6.002;2023-01-01T04:23:48;5.72;;;2.40;;
25950;SDS011;13748;52.240;6.002;2023-01-01T04:26:15;8.55;;;2.83;;
25950;SDS011;13748;52.240;6.002;2023-01-01T04:28:42;7.38;;;3.17;;
25950;SDS011;13748;52.240;6.002;2023-01-01T04:31:09;10.65;;;3.05;;
25950;SDS011;13748;52.240;6.002;2023-01-01T04:33:36;6.05;;;2.50;;
25950;SDS011;13748;52.240;6.002;2023-01-01T04:36:04;9.73;;;2.60;;
25950;SDS011;13748;52.240;6.002;2023-01-01T04:38:32;6.70;;;2.38;;
25950;SDS011;13748;52.240;6.002;2023-01-01T04:41:00;6.20;;;2.60;;
25950;SDS011;13748;52.240;6.002;2023-01-01T04:43:28;7.10;;;2.80;;
25950;SDS011;13748;52.240;6.002;2023-01-01T04:45:56;5.60;;;2.93;;
25950;SDS011;13748;52.240;6.002;2023-01-01T04:48:24;7.33;;;2.63;;
25950;SDS011;13748;52.240;6.002;2023-01-01T04:50:55;8.30;;;2.60;;
25950;SDS011;13748;52.240;6.002;2023-01-01T04:53:28;8.23;;;2.57;;
25950;SDS011;13748;52.240;6.002;2023-01-01T04:56:01;6.83;;;2.53;;
25950;SDS011;13748;52.240;6.002;2023-01-01T04:58:32;7.10;;;2.47;;
25950;SDS011;13748;52.240;6.002;2023-01-01T05:01:00;6.80;;;2.70;;
25950;SDS011;13748;52.240;6.002;2023-01-01T05:03:27;10.23;;;2.80;;
25950;SDS011;13748;52.240;6.002;2023-01-01T05:08:28;6.40;;;3.23;;
25950;SDS011;13748;52.240;6.002;2023-01-01T05:11:00;10.93;;;3.30;;
25950;SDS011;13748;52.240;6.002;2023-01-01T05:13:31;6.27;;;3.03;;
25950;SDS011;13748;52.240;6.002;2023-01-01T05:16:03;8.43;;;3.23;;
25950;SDS011;13748;52.240;6.002;2023-01-01T05:18:33;10.23;;;2.87;;
25950;SDS011;13748;52.240;6.002;2023-01-01T05:21:01;7.13;;;2.40;;
25950;SDS011;13748;52.240;6.002;2023-01-01T05:23:30;9.73;;;3.10;;
25950;SDS011;13748;52.240;6.002;2023-01-01T05:25:56;10.17;;;2.67;;
25950;SDS011;13748;52.240;6.002;2023-01-01T05:28:23;12.10;;;3.17;;
25950;SDS011;13748;52.240;6.002;2023-01-01T05:30:51;11.30;;;3.33;;
25950;SDS011;13748;52.240;6.002;2023-01-01T05:33:19;6.80;;;2.90;;
25950;SDS011;13748;52.240;6.002;2023-01-01T05:35:51;6.83;;;2.40;;
25950;SDS011;13748;52.240;6.002;2023-01-01T05:38:18;9.37;;;2.50;;
25950;SDS011;13748;52.240;6.002;2023-01-01T05:40:45;5.83;;;2.30;;
25950;SDS011;13748;52.240;6.002;2023-01-01T05:43:12;5.03;;;2.10;;
25950;SDS011;13748;52.240;6.002;2023-01-01T05:45:39;5.00;;;2.30;;
25950;SDS011;13748;52.240;6.002;2023-01-01T05:48:05;9.90;;;2.60;;
25950;SDS011;13748;52.240;6.002;2023-01-01T05:50:32;5.33;;;1.97;;
25950;SDS011;13748;52.240;6.002;2023-01-01T05:52:59;5.30;;;2.53;;
25950;SDS011;13748;52.240;6.002;2023-01-01T05:55:25;3.57;;;1.90;;
25950;SDS011;13748;52.240;6.002;2023-01-01T05:57:52;7.13;;;2.10;;
25950;SDS011;13748;52.240;6.002;2023-01-01T06:00:19;8.77;;;2.37;;
25950;SDS011;13748;52.240;6.002;2023-01-01T06:02:46;12.00;;;2.30;;
25950;SDS011;13748;52.240;6.002;2023-01-01T06:05:15;7.27;;;2.27;;
25950;SDS011;13748;52.240;6.002;2023-01-01T06:07:42;7.97;;;2.13;;
25950;SDS011;13748;52.240;6.002;2023-01-01T06:10:13;8.30;;;2.37;;
25950;SDS011;13748;52.240;6.002;2023-01-01T06:12:40;4.27;;;2.03;;
25950;SDS011;13748;52.240;6.002;2023-01-01T06:15:07;7.80;;;2.30;;
25950;SDS011;13748;52.240;6.002;2023-01-01T06:17:34;8.90;;;2.07;;
25950;SDS011;13748;52.240;6.002;2023-01-01T06:20:01;6.33;;;1.83;;
25950;SDS011;13748;52.240;6.002;2023-01-01T06:22:27;4.80;;;1.73;;
25950;SDS011;13748;52.240;6.002;2023-01-01T06:24:54;4.40;;;1.60;;
25950;SDS011;13748;52.240;6.002;2023-01-01T06:27:21;7.10;;;1.70;;
25950;SDS011;13748;52.240;6.002;2023-01-01T06:29:47;3.13;;;1.40;;
25950;SDS011;13748;52.240;6.002;2023-01-01T06:32:14;5.20;;;1.57;;
25950;SDS011;13748;52.240;6.002;2023-01-01T06:34:41;2.87;;;2.17;;
25950;SDS011;13748;52.240;6.002;2023-01-01T06:37:07;6.37;;;1.43;;
25950;SDS011;13748;52.240;6.002;2023-01-01T06:39:34;7.40;;;1.40;;
25950;SDS011;13748;52.240;6.002;2023-01-01T06:42:01;5.00;;;1.60;;
25950;SDS011;13748;52.240;6.002;2023-01-01T06:44:27;3.87;;;1.23;;
25950;SDS011;13748;52.240;6.002;2023-01-01T06:46:54;5.57;;;1.40;;
25950;SDS011;13748;52.240;6.002;2023-01-01T06:49:21;3.93;;;1.20;;
25950;SDS011;13748;52.240;6.002;2023-01-01T06:51:47;6.17;;;1.80;;
25950;SDS011;13748;52.240;6.002;2023-01-01T06:54:14;4.30;;;1.50;;
25950;SDS011;13748;52.240;6.002;2023-01-01T06:56:41;5.47;;;1.50;;
25950;SDS011;13748;52.240;6.002;2023-01-01T06:59:08;4.80;;;1.60;;
25950;SDS011;13748;52.240;6.002;2023-01-01T07:01:35;2.53;;;1.30;;
25950;SDS011;13748;52.240;6.002;2023-01-01T07:04:04;4.97;;;1.40;;
25950;SDS011;13748;52.240;6.002;2023-01-01T07:06:33;5.93;;;1.93;;
25950;SDS011;13748;52.240;6.002;2023-01-01T07:09:01;4.77;;;1.83;;
25950;SDS011;13748;52.240;6.002;2023-01-01T07:11:28;4.10;;;1.13;;
25950;SDS011;13748;52.240;6.002;2023-01-01T07:13:55;3.40;;;1.10;;
25950;SDS011;13748;52.240;6.002;2023-01-01T07:16:22;3.80;;;1.43;;
25950;SDS011;13748;52.240;6.002;2023-01-01T07:18:49;6.07;;;1.10;;
25950;SDS011;13748;52.240;6.002;2023-01-01T07:21:33;4.27;;;1.20;;
25950;SDS011;13748;52.240;6.002;2023-01-01T07:24:09;2.87;;;1.50;;
25950;SDS011;13748;52.240;6.002;2023-01-01T07:26:38;3.20;;;1.37;;
25950;SDS011;13748;52.240;6.002;2023-01-01T07:29:07;6.07;;;1.30;;
25950;SDS011;13748;52.240;6.002;2023-01-01T07:31:38;3.87;;;1.13;;
25950;SDS011;13748;52.240;6.002;2023-01-01T07:34:06;5.63;;;1.60;;
25950;SDS011;13748;52.240;6.002;2023-01-01T07:36:38;4.27;;;1.07;;
25950;SDS011;13748;52.240;6.002;2023-01-01T07:39:04;6.67;;;1.30;;
25950;SDS011;13748;52.240;6.002;2023-01-01T07:41:31;4.73;;;1.20;;
25950;SDS011;13748;52.240;6.002;2023-01-01T07:43:58;3.17;;;1.20;;
25950;SDS011;13748;52.240;6.002;2023-01-01T07:46:25;6.90;;;2.00;;
25950;SDS011;13748;52.240;6.002;2023-01-01T07:48:52;4.57;;;1.30;;
25950;SDS011;13748;52.240;6.002;2023-01-01T07:51:19;7.93;;;1.40;;
25950;SDS011;13748;52.240;6.002;2023-01-01T07:53:46;6.67;;;1.30;;
25950;SDS011;13748;52.240;6.002;2023-01-01T07:56:13;5.43;;;1.40;;
25950;SDS011;13748;52.240;6.002;2023-01-01T07:58:40;6.03;;;1.50;;
25950;SDS011;13748;52.240;6.002;2023-01-01T08:01:13;4.70;;;1.23;;
25950;SDS011;13748;52.240;6.002;2023-01-01T08:03:40;5.67;;;1.40;;
25950;SDS011;13748;52.240;6.002;2023-01-01T08:06:08;5.97;;;1.20;;
25950;SDS011;13748;52.240;6.002;2023-01-01T08:08:38;3.93;;;1.40;;
25950;SDS011;13748;52.240;6.002;2023-01-01T08:11:06;6.63;;;1.37;;
25950;SDS011;13748;52.240;6.002;2023-01-01T08:13:33;2.93;;;1.30;;
25950;SDS011;13748;52.240;6.002;2023-01-01T08:16:00;3.57;;;1.20;;
25950;SDS011;13748;52.240;6.002;2023-01-01T08:18:27;5.93;;;1.40;;
25950;SDS011;13748;52.240;6.002;2023-01-01T08:20:54;7.93;;;2.10;;
25950;SDS011;13748;52.240;6.002;2023-01-01T08:23:22;6.33;;;1.43;;
25950;SDS011;13748;52.240;6.002;2023-01-01T08:25:50;3.67;;;1.17;;
25950;SDS011;13748;52.240;6.002;2023-01-01T08:28:17;3.97;;;1.60;;
25950;SDS011;13748;52.240;6.002;2023-01-01T08:30:44;5.80;;;1.17;;
25950;SDS011;13748;52.240;6.002;2023-01-01T08:33:10;3.97;;;1.03;;
25950;SDS011;13748;52.240;6.002;2023-01-01T08:35:39;4.50;;;1.17;;
25950;SDS011;13748;52.240;6.002;2023-01-01T08:38:09;5.43;;;1.50;;
25950;SDS011;13748;52.240;6.002;2023-01-01T08:40:37;4.60;;;1.47;;
25950;SDS011;13748;52.240;6.002;2023-01-01T08:43:04;7.17;;;1.17;;
25950;SDS011;13748;52.240;6.002;2023-01-01T08:45:31;5.70;;;1.23;;
25950;SDS011;13748;52.240;6.002;2023-01-01T08:47:58;4.40;;;1.63;;
25950;SDS011;13748;52.240;6.002;2023-01-01T08:50:25;7.53;;;1.60;;
25950;SDS011;13748;52.240;6.002;2023-01-01T08:52:52;5.93;;;1.40;;
25950;SDS011;13748;52.240;6.002;2023-01-01T08:55:20;9.17;;;1.93;;
25950;SDS011;13748;52.240;6.002;2023-01-01T08:57:47;5.03;;;1.20;;
25950;SDS011;13748;52.240;6.002;2023-01-01T09:00:13;7.40;;;1.60;;
25950;SDS011;13748;52.240;6.002;2023-01-01T09:02:41;4.00;;;1.37;;
25950;SDS011;13748;52.240;6.002;2023-01-01T09:05:08;6.87;;;1.43;;
25950;SDS011;13748;52.240;6.002;2023-01-01T09:07:36;8.03;;;1.50;;
25950;SDS011;13748;52.240;6.002;2023-01-01T09:10:03;7.53;;;1.93;;
25950;SDS011;13748;52.240;6.002;2023-01-01T09:12:30;4.70;;;1.53;;
25950;SDS011;13748;52.240;6.002;2023-01-01T09:14:58;8.10;;;1.80;;
25950;SDS011;13748;52.240;6.002;2023-01-01T09:17:25;6.60;;;1.57;;
25950;SDS011;13748;52.240;6.002;2023-01-01T09:19:51;7.70;;;1.50;;
25950;SDS011;13748;52.240;6.002;2023-01-01T09:22:18;8.27;;;1.87;;
25950;SDS011;13748;52.240;6.002;2023-01-01T09:24:45;10.37;;;1.73;;
25950;SDS011;13748;52.240;6.002;2023-01-01T09:27:12;5.97;;;1.40;;
25950;SDS011;13748;52.240;6.002;2023-01-01T09:29:38;6.67;;;1.50;;
25950;SDS011;13748;52.240;6.002;2023-01-01T09:32:05;6.30;;;1.47;;
25950;SDS011;13748;52.240;6.002;2023-01-01T09:34:32;9.73;;;2.00;;
25950;SDS011;13748;52.240;6.002;2023-01-01T09:36:58;7.07;;;1.93;;
25950;SDS011;13748;52.240;6.002;2023-01-01T09:39:25;13.33;;;2.00;;
25950;SDS011;13748;52.240;6.002;2023-01-01T09:44:48;8.00;;;1.93;;
25950;SDS011;13748;52.240;6.002;2023-01-01T09:47:37;6.63;;;1.60;;
25950;SDS011;13748;52.240;6.002;2023-01-01T09:53:00;5.87;;;1.27;;
25950;SDS011;13748;52.240;6.002;2023-01-01T09:58:28;10.93;;;1.60;;
25950;SDS011;13748;52.240;6.002;2023-01-01T10:03:55;6.57;;;1.83;;
25950;SDS011;13748;52.240;6.002;2023-01-01T10:06:50;6.27;;;1.57;;
25950;SDS011;13748;52.240;6.002;2023-01-01T10:09:50;10.77;;;2.90;;
25950;SDS011;13748;52.240;6.002;2023-01-01T10:15:26;8.97;;;2.10;;
25950;SDS011;13748;52.240;6.002;2023-01-01T10:17:58;6.63;;;1.83;;
25950;SDS011;13748;52.240;6.002;2023-01-01T10:20:31;11.63;;;2.53;;
25950;SDS011;13748;52.240;6.002;2023-01-01T10:23:10;8.60;;;1.60;;
25950;SDS011;13748;52.240;6.002;2023-01-01T10:25:48;5.07;;;1.77;;
25950;SDS011;13748;52.240;6.002;2023-01-01T10:31:17;8.67;;;1.50;;
25950;SDS011;13748;52.240;6.002;2023-01-01T10:33:50;9.83;;;1.93;;
25950;SDS011;13748;52.240;6.002;2023-01-01T10:36:17;7.47;;;1.83;;
25950;SDS011;13748;52.240;6.002;2023-01-01T10:38:46;7.47;;;1.87;;
25950;SDS011;13748;52.240;6.002;2023-01-01T10:41:14;8.87;;;1.93;;
25950;SDS011;13748;52.240;6.002;2023-01-01T10:43:45;6.77;;;1.60;;
25950;SDS011;13748;52.240;6.002;2023-01-01T10:46:15;10.83;;;2.00;;
25950;SDS011;13748;52.240;6.002;2023-01-01T10:49:05;10.03;;;2.90;;
25950;SDS011;13748;52.240;6.002;2023-01-01T10:51:37;8.43;;;2.17;;
25950;SDS011;13748;52.240;6.002;2023-01-01T10:54:34;11.33;;;2.10;;
25950;SDS011;13748;52.240;6.002;2023-01-01T10:57:15;15.53;;;2.60;;
25950;SDS011;13748;52.240;6.002;2023-01-01T10:59:47;7.43;;;2.37;;
25950;SDS011;13748;52.240;6.002;2023-01-01T11:02:23;8.50;;;2.10;;
25950;SDS011;13748;52.240;6.002;2023-01-01T11:07:55;9.10;;;2.30;;
25950;SDS011;13748;52.240;6.002;2023-01-01T11:10:22;7.30;;;2.70;;
25950;SDS011;13748;52.240;6.002;2023-01-01T11:12:56;6.97;;;1.90;;
25950;SDS011;13748;52.240;6.002;2023-01-01T11:15:38;6.03;;;1.63;;
25950;SDS011;13748;52.240;6.002;2023-01-01T11:18:11;11.03;;;2.27;;
25950;SDS011;13748;52.240;6.002;2023-01-01T11:20:40;14.73;;;2.30;;
25950;SDS011;13748;52.240;6.002;2023-01-01T11:23:18;10.43;;;2.10;;
25950;SDS011;13748;52.240;6.002;2023-01-01T11:26:07;7.30;;;2.83;;
25950;SDS011;13748;52.240;6.002;2023-01-01T11:29:33;8.03;;;1.93;;
25950;SDS011;13748;52.240;6.002;2023-01-01T11:31:39;10.23;;;1.90;;
25950;SDS011;13748;52.240;6.002;2023-01-01T11:39:49;11.13;;;2.73;;
25950;SDS011;13748;52.240;6.002;2023-01-01T11:42:18;9.50;;;2.17;;
25950;SDS011;13748;52.240;6.002;2023-01-01T11:44:49;7.00;;;2.10;;
25950;SDS011;13748;52.240;6.002;2023-01-01T11:47:41;7.27;;;2.50;;
25950;SDS011;13748;52.240;6.002;2023-01-01T11:52:50;11.20;;;2.60;;
25950;SDS011;13748;52.240;6.002;2023-01-01T12:00:45;8.53;;;3.10;;
25950;SDS011;13748;52.240;6.002;2023-01-01T12:03:16;12.47;;;5.77;;
25950;SDS011;13748;52.240;6.002;2023-01-01T12:09:02;11.30;;;4.77;;
25950;SDS011;13748;52.240;6.002;2023-01-01T12:14:39;8.80;;;3.33;;
25950;SDS011;13748;52.240;6.002;2023-01-01T12:20:05;10.37;;;2.67;;
25950;SDS011;13748;52.240;6.002;2023-01-01T12:22:46;9.67;;;2.70;;
25950;SDS011;13748;52.240;6.002;2023-01-01T12:25:14;13.40;;;4.10;;
25950;SDS011;13748;52.240;6.002;2023-01-01T12:30:24;9.10;;;3.60;;
25950;SDS011;13748;52.240;6.002;2023-01-01T12:42:00;14.40;;;3.93;;
25950;SDS011;13748;52.240;6.002;2023-01-01T12:47:52;12.43;;;2.90;;
25950;SDS011;13748;52.240;6.002;2023-01-01T12:53:05;13.63;;;3.43;;
25950;SDS011;13748;52.240;6.002;2023-01-01T12:58:56;10.97;;;3.57;;
25950;SDS011;13748;52.240;6.002;2023-01-01T13:01:31;11.87;;;3.50;;
25950;SDS011;13748;52.240;6.002;2023-01-01T13:06:31;11.50;;;3.17;;
25950;SDS011;13748;52.240;6.002;2023-01-01T13:09:10;12.07;;;3.87;;
25950;SDS011;13748;52.240;6.002;2023-01-01T13:11:42;11.00;;;3.73;;
25950;SDS011;13748;52.240;6.002;2023-01-01T13:14:13;9.33;;;3.87;;
25950;SDS011;13748;52.240;6.002;2023-01-01T13:16:40;10.63;;;3.60;;
25950;SDS011;13748;52.240;6.002;2023-01-01T13:21:56;10.37;;;3.80;;
25950;SDS011;13748;52.240;6.002;2023-01-01T13:24:25;9.30;;;3.43;;
25950;SDS011;13748;52.240;6.002;2023-01-01T13:26:52;8.60;;;3.22;;
25950;SDS011;13748;52.240;6.002;2023-01-01T13:45:20;10.30;;;3.53;;
25950;SDS011;13748;52.240;6.002;2023-01-01T14:02:44;8.63;;;3.40;;
25950;SDS011;13748;52.240;6.002;2023-01-01T14:05:16;11.20;;;3.80;;
25950;SDS011;13748;52.240;6.002;2023-01-01T14:07:50;9.73;;;3.97;;
25950;SDS011;13748;52.240;6.002;2023-01-01T14:12:46;19.60;;;4.40;;
25950;SDS011;13748;52.240;6.002;2023-01-01T14:15:14;16.97;;;5.33;;
25950;SDS011;13748;52.240;6.002;2023-01-01T14:18:00;13.93;;;4.00;;
25950;SDS011;13748;52.240;6.002;2023-01-01T14:23:10;18.00;;;4.27;;
25950;SDS011;13748;52.240;6.002;2023-01-01T14:25:58;14.80;;;3.73;;
25950;SDS011;13748;52.240;6.002;2023-01-01T14:28:28;11.73;;;3.57;;
25950;SDS011;13748;52.240;6.002;2023-01-01T14:30:58;15.13;;;4.13;;
25950;SDS011;13748;52.240;6.002;2023-01-01T14:33:35;14.07;;;3.57;;
25950;SDS011;13748;52.240;6.002;2023-01-01T14:36:04;12.57;;;3.80;;
25950;SDS011;13748;52.240;6.002;2023-01-01T14:38:47;12.20;;;3.53;;
25950;SDS011;13748;52.240;6.002;2023-01-01T14:41:18;12.90;;;3.60;;
25950;SDS011;13748;52.240;6.002;2023-01-01T14:43:47;17.17;;;4.57;;
25950;SDS011;13748;52.240;6.002;2023-01-01T14:46:16;11.80;;;3.10;;
25950;SDS011;13748;52.240;6.002;2023-01-01T14:48:47;14.00;;;3.30;;
25950;SDS011;13748;52.240;6.002;2023-01-01T14:51:23;10.53;;;4.00;;
25950;SDS011;13748;52.240;6.002;2023-01-01T14:53:53;15.23;;;4.23;;
25950;SDS011;13748;52.240;6.002;2023-01-01T14:56:33;13.30;;;3.90;;
25950;SDS011;13748;52.240;6.002;2023-01-01T15:01:38;20.50;;;5.40;;
25950;SDS011;13748;52.240;6.002;2023-01-01T15:04:21;13.47;;;4.07;;
25950;SDS011;13748;52.240;6.002;2023-01-01T15:06:54;12.33;;;4.73;;
25950;SDS011;13748;52.240;6.002;2023-01-01T15:09:22;13.67;;;4.17;;
25950;SDS011;13748;52.240;6.002;2023-01-01T15:11:50;14.33;;;4.17;;
25950;SDS011;13748;52.240;6.002;2023-01-01T15:14:37;18.20;;;4.33;;
25950;SDS011;13748;52.240;6.002;2023-01-01T15:17:10;8.57;;;3.80;;
25950;SDS011;13748;52.240;6.002;2023-01-01T15:19:39;11.00;;;3.73;;
25950;SDS011;13748;52.240;6.002;2023-01-01T15:22:11;11.37;;;3.63;;
25950;SDS011;13748;52.240;6.002;2023-01-01T15:24:47;15.70;;;3.80;;
25950;SDS011;13748;52.240;6.002;2023-01-01T15:27:36;14.80;;;3.90;;
25950;SDS011;13748;52.240;6.002;2023-01-01T15:30:03;13.93;;;3.90;;
25950;SDS011;13748;52.240;6.002;2023-01-01T15:32:38;13.43;;;4.03;;
25950;SDS011;13748;52.240;6.002;2023-01-01T15:35:19;11.93;;;4.00;;
25950;SDS011;13748;52.240;6.002;2023-01-01T15:37:58;16.13;;;4.93;;
25950;SDS011;13748;52.240;6.002;2023-01-01T15:40:29;14.57;;;4.60;;
25950;SDS011;13748;52.240;6.002;2023-01-01T15:45:29;10.83;;;3.73;;
25950;SDS011;13748;52.240;6.002;2023-01-01T15:48:09;13.30;;;4.70;;
25950;SDS011;13748;52.240;6.002;2023-01-01T15:55:53;11.20;;;4.73;;
25950;SDS011;13748;52.240;6.002;2023-01-01T15:58:34;12.57;;;5.17;;
25950;SDS011;13748;52.240;6.002;2023-01-01T16:01:08;17.27;;;5.03;;
25950;SDS011;13748;52.240;6.002;2023-01-01T16:03:38;13.60;;;6.23;;
25950;SDS011;13748;52.240;6.002;2023-01-01T16:06:07;26.80;;;13.50;;
25950;SDS011;13748;52.240;6.002;2023-01-01T16:08:44;17.17;;;7.70;;
25950;SDS011;13748;52.240;6.002;2023-01-01T16:11:12;31.33;;;16.67;;
25950;SDS011;13748;52.240;6.002;2023-01-01T16:13:39;32.73;;;16.97;;
25950;SDS011;13748;52.240;6.002;2023-01-01T16:16:15;21.53;;;10.00;;
25950;SDS011;13748;52.240;6.002;2023-01-01T16:18:50;18.87;;;6.67;;
25950;SDS011;13748;52.240;6.002;2023-01-01T16:21:19;19.50;;;6.17;;
25950;SDS011;13748;52.240;6.002;2023-01-01T16:23:47;17.17;;;5.03;;
25950;SDS011;13748;52.240;6.002;2023-01-01T16:26:14;11.93;;;5.27;;
25950;SDS011;13748;52.240;6.002;2023-01-01T16:28:41;15.83;;;5.67;;
25950;SDS011;13748;52.240;6.002;2023-01-01T16:31:12;16.87;;;5.37;;
25950;SDS011;13748;52.240;6.002;2023-01-01T16:33:45;16.30;;;6.40;;
25950;SDS011;13748;52.240;6.002;2023-01-01T16:36:17;19.87;;;8.60;;
25950;SDS011;13748;52.240;6.002;2023-01-01T16:38:44;18.53;;;7.27;;
25950;SDS011;13748;52.240;6.002;2023-01-01T16:41:11;19.03;;;8.10;;
25950;SDS011;13748;52.240;6.002;2023-01-01T16:43:43;26.83;;;7.97;;
25950;SDS011;13748;52.240;6.002;2023-01-01T16:46:11;22.60;;;9.03;;
25950;SDS011;13748;52.240;6.002;2023-01-01T16:48:39;16.40;;;9.17;;
25950;SDS011;13748;52.240;6.002;2023-01-01T16:51:06;21.17;;;10.57;;
25950;SDS011;13748;52.240;6.002;2023-01-01T16:53:43;24.57;;;11.10;;
25950;SDS011;13748;52.240;6.002;2023-01-01T16:56:10;26.83;;;13.10;;
25950;SDS011;13748;52.240;6.002;2023-01-01T16:58:38;25.70;;;14.37;;
25950;SDS011;13748;52.240;6.002;2023-01-01T17:01:17;22.70;;;11.73;;
25950;SDS011;13748;52.240;6.002;2023-01-01T17:03:44;28.90;;;12.67;;
25950;SDS011;13748;52.240;6.002;2023-01-01T17:06:11;15.73;;;7.50;;
25950;SDS011;13748;52.240;6.002;2023-01-01T17:08:38;17.80;;;7.73;;
25950;SDS011;13748;52.240;6.002;2023-01-01T17:11:05;20.03;;;7.13;;
25950;SDS011;13748;52.240;6.002;2023-01-01T17:13:43;17.57;;;8.10;;
25950;SDS011;13748;52.240;6.002;2023-01-01T17:16:11;29.77;;;12.60;;
25950;SDS011;13748;52.240;6.002;2023-01-01T17:18:49;18.37;;;7.83;;
25950;SDS011;13748;52.240;6.002;2023-01-01T17:21:36;18.70;;;9.07;;
25950;SDS011;13748;52.240;6.002;2023-01-01T17:24:03;17.77;;;7.67;;
25950;SDS011;13748;52.240;6.002;2023-01-01T17:26:30;19.87;;;6.87;;
25950;SDS011;13748;52.240;6.002;2023-01-01T17:28:59;17.97;;;7.40;;
25950;SDS011;13748;52.240;6.002;2023-01-01T17:31:26;18.17;;;10.27;;
25950;SDS011;13748;52.240;6.002;2023-01-01T17:33:54;17.40;;;6.53;;
25950;SDS011;13748;52.240;6.002;2023-01-01T17:36:21;20.67;;;6.97;;
25950;SDS011;13748;52.240;6.002;2023-01-01T17:38:48;17.10;;;5.40;;
25950;SDS011;13748;52.240;6.002;2023-01-01T17:41:15;15.67;;;5.40;;